Time;durP1;ratioP1;P1;durP2;ratioP2;P2;SDS_P1;SDS_P2;PMS_P1;PMS_P2;Temp;Humidity;BMP_temperature;BMP_pressure;BME280_temperature;BME280_humidity;BME280_pressure;Samples;Min_cycle;Max_cycle;Signal;HPM_P1;HPM_P2
2024/01/26 00:00:20;;;;;;;58.80;52.93;;;;;;;;;;4131995;28;20043;-61
2024/01/26 00:02:22;;;;;;;58.30;53.55;;;;;;;;;;4131866;28;20038;-61
2024/01/26 00:04:24;;;;;;;58.08;48.80;;;;;;;;;;4132262;28;20058;-62
2024/01/26 00:06:26;;;;;;;56.50;51.90;;;;;;;;;;4132133;28;20066;-61
2024/01/26 00:08:28;;;;;;;90.88;55.22;;;;;;;;;;4131993;28;20069;-61
2024/01/26 00:10:30;;;;;;;60.67;53.88;;;;;;;;;;4131566;28;20491;-62
2024/01/26 00:12:32;;;;;;;70.25;52.20;;;;;;;;;;4135449;28;20042;-61
2024/01/26 00:14:34;;;;;;;62.92;55.92;;;;;;;;;;4148118;28;20044;-61
2024/01/26 00:16:37;;;;;;;61.55;55.92;;;;;;;;;;4148120;28;20033;-61
2024/01/26 00:18:40;;;;;;;98.47;61.20;;;;;;;;;;4130281;28;20042;-62
2024/01/26 00:20:43;;;;;;;87.45;55.53;;;;;;;;;;4147796;28;20387;-62
2024/01/26 00:22:45;;;;;;;65.55;59.72;;;;;;;;;;4147722;28;20125;-61
2024/01/26 00:24:47;;;;;;;73.22;56.58;;;;;;;;;;4147888;28;20095;-61
2024/01/26 00:26:49;;;;;;;62.47;56.33;;;;;;;;;;4147993;28;20129;-61
2024/01/26 00:28:51;;;;;;;67.75;58.38;;;;;;;;;;4114177;28;20047;-61
2024/01/26 00:30:52;;;;;;;77.53;58.40;;;;;;;;;;4147320;28;20048;-61
2024/01/26 00:32:55;;;;;;;69.53;51.38;;;;;;;;;;4147954;28;20042;-61
2024/01/26 00:34:57;;;;;;;75.68;55.08;;;;;;;;;;4147899;28;20042;-61
2024/01/26 00:37:00;;;;;;;69.13;58.78;;;;;;;;;;4147892;28;20125;-61
2024/01/26 00:39:02;;;;;;;76.20;54.35;;;;;;;;;;4147561;28;20418;-61
2024/01/26 00:41:04;;;;;;;59.13;52.80;;;;;;;;;;4147560;28;20107;-61
2024/01/26 00:43:06;;;;;;;60.22;54.42;;;;;;;;;;4147795;28;20296;-61
2024/01/26 00:45:07;;;;;;;61.42;55.05;;;;;;;;;;4147635;28;20088;-61
2024/01/26 00:47:09;;;;;;;59.93;54.00;;;;;;;;;;4147471;28;20457;-62
2024/01/26 00:49:10;;;;;;;59.28;53.65;;;;;;;;;;4147334;28;20641;-61
2024/01/26 00:51:12;;;;;;;67.97;60.73;;;;;;;;;;4130168;28;20035;-62
2024/01/26 00:53:14;;;;;;;124.70;71.72;;;;;;;;;;4147308;28;20050;-62
2024/01/26 00:55:15;;;;;;;148.02;72.43;;;;;;;;;;4147594;28;20050;-61
2024/01/26 00:57:17;;;;;;;83.00;69.75;;;;;;;;;;4147216;28;20042;-61
2024/01/26 00:59:19;;;;;;;70.97;63.15;;;;;;;;;;4147627;28;20402;-61
2024/01/26 01:01:21;;;;;;;72.70;63.13;;;;;;;;;;4147725;28;20042;-61
2024/01/26 01:03:24;;;;;;;109.00;62.90;;;;;;;;;;4131216;28;20365;-61
2024/01/26 01:05:26;;;;;;;73.90;62.00;;;;;;;;;;4150719;28;20044;-61
2024/01/26 01:07:27;;;;;;;67.03;60.43;;;;;;;;;;4150581;28;20054;-61
2024/01/26 01:09:29;;;;;;;91.68;63.42;;;;;;;;;;4150938;28;20100;-62
2024/01/26 01:11:31;;;;;;;81.68;59.67;;;;;;;;;;4150578;28;20516;-62
2024/01/26 01:13:33;;;;;;;104.60;63.90;;;;;;;;;;4150624;28;20073;-62
2024/01/26 01:15:35;;;;;;;129.85;65.60;;;;;;;;;;4150776;28;20371;-62
2024/01/26 01:17:41;;;;;;;94.18;62.17;;;;;;;;;;4150508;28;20088;-62
2024/01/26 01:19:42;;;;;;;65.25;58.60;;;;;;;;;;4150666;28;20046;-62
2024/01/26 01:21:45;;;;;;;144.33;63.60;;;;;;;;;;4150700;28;20096;-62
2024/01/26 01:23:46;;;;;;;76.13;59.53;;;;;;;;;;4150458;28;20346;-62
2024/01/26 01:25:48;;;;;;;68.60;60.85;;;;;;;;;;4150353;28;20042;-62
2024/01/26 01:27:49;;;;;;;86.88;64.30;;;;;;;;;;4150432;28;20121;-62
2024/01/26 01:29:51;;;;;;;72.18;61.83;;;;;;;;;;4150379;28;20128;-62
2024/01/26 01:31:53;;;;;;;107.20;65.07;;;;;;;;;;4150294;28;20478;-62
2024/01/26 01:33:54;;;;;;;126.03;61.97;;;;;;;;;;4150256;28;20042;-62
2024/01/26 01:35:56;;;;;;;76.05;60.95;;;;;;;;;;4150261;28;20045;-62
2024/01/26 01:37:58;;;;;;;70.73;62.33;;;;;;;;;;4150249;28;20125;-62
2024/01/26 01:39:59;;;;;;;66.93;59.47;;;;;;;;;;4150405;28;20034;-62
2024/01/26 01:42:01;;;;;;;78.93;59.00;;;;;;;;;;4149957;28;20185;-62
2024/01/26 01:44:03;;;;;;;93.50;58.20;;;;;;;;;;4150204;28;20757;-62
2024/01/26 01:46:04;;;;;;;90.93;57.80;;;;;;;;;;4134037;28;20066;-62
2024/01/26 01:48:06;;;;;;;66.70;54.23;;;;;;;;;;4133625;28;20050;-62
2024/01/26 01:50:08;;;;;;;96.90;59.90;;;;;;;;;;4134170;28;20070;-62
2024/01/26 01:52:11;;;;;;;74.47;62.05;;;;;;;;;;4133607;28;20077;-62
2024/01/26 01:54:13;;;;;;;79.15;62.92;;;;;;;;;;4133823;28;20499;-62
2024/01/26 01:56:23;;;;;;;172.25;64.38;;;;;;;;;;4140593;28;20513;-62
2024/01/26 01:58:25;;;;;;;154.07;64.30;;;;;;;;;;4148835;28;20117;-62
2024/01/26 02:00:27;;;;;;;154.02;65.63;;;;;;;;;;4150243;28;20045;-61
2024/01/26 02:02:28;;;;;;;135.63;60.90;;;;;;;;;;4149919;28;20099;-62
2024/01/26 02:04:31;;;;;;;102.50;58.70;;;;;;;;;;4147801;28;20045;-62
2024/01/26 02:06:32;;;;;;;80.55;58.25;;;;;;;;;;4149599;28;20298;-62
2024/01/26 02:08:34;;;;;;;87.10;63.55;;;;;;;;;;4149694;28;20045;-62
2024/01/26 02:10:36;;;;;;;65.70;59.07;;;;;;;;;;4149727;28;20092;-62
2024/01/26 02:12:37;;;;;;;68.68;61.72;;;;;;;;;;4149653;28;20506;-62
2024/01/26 02:14:42;;;;;;;67.38;60.50;;;;;;;;;;4148900;28;20042;-62
2024/01/26 02:16:54;;;;;;;80.32;60.30;;;;;;;;;;4149689;28;20046;-62
2024/01/26 02:18:55;;;;;;;74.20;60.22;;;;;;;;;;4149579;28;20070;-62
2024/01/26 02:20:57;;;;;;;147.13;63.35;;;;;;;;;;4149612;28;20046;-62
2024/01/26 02:22:59;;;;;;;132.73;63.22;;;;;;;;;;4149411;28;20050;-62
2024/01/26 02:25:01;;;;;;;135.70;67.10;;;;;;;;;;4132037;28;20047;-62
2024/01/26 02:27:03;;;;;;;148.90;66.60;;;;;;;;;;4149712;28;20088;-62
2024/01/26 02:29:04;;;;;;;124.30;65.57;;;;;;;;;;4149697;28;20041;-62
2024/01/26 02:31:06;;;;;;;76.47;62.25;;;;;;;;;;4149611;28;20050;-62
2024/01/26 02:33:08;;;;;;;103.10;61.95;;;;;;;;;;4149599;28;20045;-62
2024/01/26 02:35:10;;;;;;;82.40;60.35;;;;;;;;;;4149600;28;20584;-62
2024/01/26 02:37:12;;;;;;;76.05;62.80;;;;;;;;;;4149519;28;20038;-62
2024/01/26 02:39:14;;;;;;;70.80;62.10;;;;;;;;;;4149566;28;20053;-62
2024/01/26 02:41:15;;;;;;;120.15;63.10;;;;;;;;;;4148788;28;20042;-62
2024/01/26 02:43:17;;;;;;;168.23;65.28;;;;;;;;;;4148001;28;20038;-63
2024/01/26 02:45:19;;;;;;;155.07;65.25;;;;;;;;;;4147915;28;20068;-62
2024/01/26 02:47:22;;;;;;;85.70;62.38;;;;;;;;;;4147751;28;20045;-62
2024/01/26 02:49:24;;;;;;;91.75;62.03;;;;;;;;;;4147868;28;20557;-63
2024/01/26 02:51:26;;;;;;;95.50;62.05;;;;;;;;;;4130474;28;20138;-63
2024/01/26 02:53:28;;;;;;;149.17;66.27;;;;;;;;;;4148119;28;20096;-63
2024/01/26 02:55:29;;;;;;;97.95;62.05;;;;;;;;;;4143402;28;20302;-62
2024/01/26 02:57:31;;;;;;;67.55;60.28;;;;;;;;;;4148574;28;20045;-63
2024/01/26 02:59:33;;;;;;;64.37;58.00;;;;;;;;;;4148994;28;20129;-62
2024/01/26 03:01:34;;;;;;;59.67;54.25;;;;;;;;;;4148816;28;20050;-63
2024/01/26 03:03:36;;;;;;;64.70;58.93;;;;;;;;;;4148965;28;20046;-63
2024/01/26 03:05:38;;;;;;;60.47;54.42;;;;;;;;;;4148928;28;20498;-63
2024/01/26 03:07:40;;;;;;;61.25;54.97;;;;;;;;;;4148884;28;20046;-63
2024/01/26 03:09:41;;;;;;;57.23;51.83;;;;;;;;;;4149148;28;20404;-63
2024/01/26 03:11:43;;;;;;;58.37;52.37;;;;;;;;;;4148794;28;20502;-63
2024/01/26 03:13:45;;;;;;;65.35;51.15;;;;;;;;;;4148882;28;20057;-63
2024/01/26 03:15:49;;;;;;;59.63;54.08;;;;;;;;;;4148975;28;20050;-63
2024/01/26 03:17:51;;;;;;;54.67;49.45;;;;;;;;;;4148606;28;20426;-63
2024/01/26 03:19:53;;;;;;;62.90;56.10;;;;;;;;;;4148738;28;20042;-63
2024/01/26 03:21:57;;;;;;;63.72;49.90;;;;;;;;;;4148671;28;20146;-63
2024/01/26 03:23:59;;;;;;;57.22;51.72;;;;;;;;;;4148503;28;20046;-63
2024/01/26 03:26:01;;;;;;;55.75;50.45;;;;;;;;;;4148764;28;20050;-62
2024/01/26 03:28:02;;;;;;;63.28;56.75;;;;;;;;;;4148563;28;20050;-63
2024/01/26 03:30:04;;;;;;;58.83;52.63;;;;;;;;;;4148895;28;20046;-63
2024/01/26 03:32:06;;;;;;;59.15;53.45;;;;;;;;;;4148688;28;20048;-63
2024/01/26 03:34:09;;;;;;;66.28;54.25;;;;;;;;;;4148550;28;20048;-62
2024/01/26 03:36:12;;;;;;;60.45;54.22;;;;;;;;;;4148276;28;20048;-63
2024/01/26 03:38:15;;;;;;;88.43;54.72;;;;;;;;;;4135024;28;20046;-62
2024/01/26 03:40:17;;;;;;;107.00;54.55;;;;;;;;;;4132030;28;20045;-63
2024/01/26 03:42:18;;;;;;;70.45;55.53;;;;;;;;;;4132286;28;20042;-63
2024/01/26 03:44:20;;;;;;;73.20;54.63;;;;;;;;;;4132230;28;20125;-63
2024/01/26 03:46:22;;;;;;;71.73;53.30;;;;;;;;;;4131955;28;20050;-63
2024/01/26 03:48:23;;;;;;;86.45;54.67;;;;;;;;;;4131877;28;20129;-63
2024/01/26 03:50:25;;;;;;;89.87;51.83;;;;;;;;;;4132170;28;20046;-62
2024/01/26 03:52:27;;;;;;;77.60;54.23;;;;;;;;;;4131887;28;20449;-63
2024/01/26 03:54:28;;;;;;;66.70;50.25;;;;;;;;;;4132294;28;20042;-63
2024/01/26 03:56:30;;;;;;;85.80;50.53;;;;;;;;;;4140791;28;20494;-63
2024/01/26 03:58:32;;;;;;;89.10;51.22;;;;;;;;;;4148087;28;20042;-63
2024/01/26 04:00:34;;;;;;;78.72;51.88;;;;;;;;;;4148201;28;20096;-64
2024/01/26 04:02:36;;;;;;;77.40;50.35;;;;;;;;;;4148114;28;20485;-63
2024/01/26 04:04:37;;;;;;;66.20;49.97;;;;;;;;;;4148086;28;20422;-63
2024/01/26 04:06:40;;;;;;;57.17;51.58;;;;;;;;;;4148168;28;20339;-63
2024/01/26 04:08:41;;;;;;;55.50;50.72;;;;;;;;;;4141051;28;20054;-63
2024/01/26 04:10:46;;;;;;;62.95;52.42;;;;;;;;;;4132026;28;20042;-63
2024/01/26 04:12:48;;;;;;;56.75;51.25;;;;;;;;;;4137736;28;20084;-63
2024/01/26 04:14:49;;;;;;;56.20;50.73;;;;;;;;;;4148294;28;20060;-63
2024/01/26 04:16:51;;;;;;;55.72;51.10;;;;;;;;;;4147975;28;20034;-63
2024/01/26 04:18:53;;;;;;;55.27;50.30;;;;;;;;;;4148197;28;20100;-63
2024/01/26 04:20:55;;;;;;;57.73;52.43;;;;;;;;;;4147868;28;20285;-63
2024/01/26 04:22:56;;;;;;;59.13;52.93;;;;;;;;;;4147813;28;20281;-63
2024/01/26 04:24:58;;;;;;;58.93;52.60;;;;;;;;;;4147905;28;20517;-63
2024/01/26 04:27:00;;;;;;;57.67;51.57;;;;;;;;;;4147875;28;20045;-63
2024/01/26 04:29:02;;;;;;;52.30;47.20;;;;;;;;;;4147838;28;20056;-64
2024/01/26 04:31:04;;;;;;;48.28;43.58;;;;;;;;;;4147930;28;20433;-63
2024/01/26 04:33:06;;;;;;;46.50;42.20;;;;;;;;;;4147246;28;20409;-63
2024/01/26 04:35:10;;;;;;;54.90;44.13;;;;;;;;;;4147774;28;20079;-63
2024/01/26 04:37:12;;;;;;;47.60;42.33;;;;;;;;;;4147495;28;20038;-63
2024/01/26 04:39:14;;;;;;;51.20;43.83;;;;;;;;;;4147364;28;20520;-63
2024/01/26 04:41:16;;;;;;;45.72;41.50;;;;;;;;;;4147781;28;20096;-63
2024/01/26 04:43:18;;;;;;;59.10;41.58;;;;;;;;;;4147691;28;20104;-62
2024/01/26 04:45:19;;;;;;;46.28;42.35;;;;;;;;;;4147652;28;20042;-62
2024/01/26 04:47:21;;;;;;;65.55;43.50;;;;;;;;;;4147798;28;20093;-63
2024/01/26 04:49:23;;;;;;;50.80;41.97;;;;;;;;;;4147036;28;20042;-62
2024/01/26 04:51:25;;;;;;;44.83;41.55;;;;;;;;;;4147389;28;20391;-62
2024/01/26 04:53:27;;;;;;;44.35;41.20;;;;;;;;;;4147580;28;20436;-62
2024/01/26 04:55:29;;;;;;;51.13;46.55;;;;;;;;;;4147258;28;20476;-62
2024/01/26 04:57:31;;;;;;;52.45;47.38;;;;;;;;;;4147775;28;20113;-62
2024/01/26 04:59:32;;;;;;;52.15;46.65;;;;;;;;;;4147424;28;20042;-63
2024/01/26 05:01:34;;;;;;;82.88;46.03;;;;;;;;;;4147543;28;20036;-63
2024/01/26 05:03:35;;;;;;;122.18;49.80;;;;;;;;;;4147615;28;20042;-63
2024/01/26 05:05:37;;;;;;;96.68;52.28;;;;;;;;;;4147508;28;20042;-63
2024/01/26 05:07:39;;;;;;;120.25;50.38;;;;;;;;;;4147551;28;20042;-63
2024/01/26 05:09:41;;;;;;;210.30;51.50;;;;;;;;;;4145997;28;20030;-63
2024/01/26 05:11:46;;;;;;;124.78;47.00;;;;;;;;;;4147440;28;20054;-63
2024/01/26 05:13:48;;;;;;;49.67;44.87;;;;;;;;;;4129798;28;20062;-63
2024/01/26 05:15:49;;;;;;;46.60;41.80;;;;;;;;;;4146763;28;20112;-63
2024/01/26 05:17:51;;;;;;;85.60;48.80;;;;;;;;;;4141527;28;20077;-63
2024/01/26 05:19:53;;;;;;;62.53;45.33;;;;;;;;;;4131135;28;20831;-63
2024/01/26 05:21:54;;;;;;;57.00;44.23;;;;;;;;;;4131194;28;20077;-64
2024/01/26 05:23:56;;;;;;;94.00;51.27;;;;;;;;;;4131056;28;20038;-63
2024/01/26 05:25:58;;;;;;;92.28;51.50;;;;;;;;;;4131388;28;20050;-64
2024/01/26 05:27:59;;;;;;;80.15;48.40;;;;;;;;;;4130894;28;20457;-64
2024/01/26 05:30:01;;;;;;;48.75;43.67;;;;;;;;;;4138010;28;20041;-64
2024/01/26 05:32:03;;;;;;;46.75;43.17;;;;;;;;;;4147248;28;20048;-63
2024/01/26 05:34:05;;;;;;;44.78;40.90;;;;;;;;;;4147285;28;20034;-63
2024/01/26 05:36:07;;;;;;;48.80;43.08;;;;;;;;;;4147197;28;20096;-63
2024/01/26 05:38:09;;;;;;;45.67;41.30;;;;;;;;;;4147209;28;20042;-63
2024/01/26 05:40:11;;;;;;;46.65;42.08;;;;;;;;;;4147068;28;20092;-63
2024/01/26 05:42:12;;;;;;;46.40;43.08;;;;;;;;;;4147099;28;20042;-62
2024/01/26 05:44:14;;;;;;;43.97;39.95;;;;;;;;;;4146706;28;20088;-62
2024/01/26 05:46:16;;;;;;;43.75;37.60;;;;;;;;;;4147046;28;20498;-63
2024/01/26 05:48:17;;;;;;;48.22;43.78;;;;;;;;;;4147164;28;20042;-63
2024/01/26 05:50:21;;;;;;;46.47;42.37;;;;;;;;;;4148105;28;20424;-63
2024/01/26 05:52:23;;;;;;;46.00;42.40;;;;;;;;;;4150012;28;20117;-64
2024/01/26 05:54:24;;;;;;;44.93;41.47;;;;;;;;;;4150100;28;20038;-64
2024/01/26 05:56:26;;;;;;;47.88;43.15;;;;;;;;;;4149907;28;20641;-64
2024/01/26 05:58:31;;;;;;;49.00;45.28;;;;;;;;;;4149967;28;20501;-63
2024/01/26 06:00:35;;;;;;;46.58;42.83;;;;;;;;;;4150137;28;20042;-63
2024/01/26 06:02:37;;;;;;;47.83;44.25;;;;;;;;;;4149837;28;20121;-63
2024/01/26 06:04:39;;;;;;;49.40;45.60;;;;;;;;;;4149815;28;20405;-63
2024/01/26 06:06:41;;;;;;;47.60;43.47;;;;;;;;;;4149090;28;20457;-63
2024/01/26 06:08:43;;;;;;;47.42;42.78;;;;;;;;;;4149712;28;20542;-64
2024/01/26 06:10:46;;;;;;;44.20;40.42;;;;;;;;;;4133282;28;20490;-63
2024/01/26 06:12:47;;;;;;;48.17;43.75;;;;;;;;;;4133219;28;20047;-63
2024/01/26 06:14:49;;;;;;;45.88;42.10;;;;;;;;;;4133297;28;20050;-64
2024/01/26 06:16:51;;;;;;;48.83;44.47;;;;;;;;;;4148813;28;20057;-63
2024/01/26 06:18:53;;;;;;;49.42;45.28;;;;;;;;;;4149621;28;20046;-64
2024/01/26 06:20:55;;;;;;;114.53;48.17;;;;;;;;;;4149802;28;20044;-63
2024/01/26 06:22:57;;;;;;;51.88;46.67;;;;;;;;;;4137309;28;20081;-64
2024/01/26 06:24:59;;;;;;;56.58;46.03;;;;;;;;;;4133627;28;20524;-65
2024/01/26 06:27:01;;;;;;;53.80;48.28;;;;;;;;;;4148669;28;20749;-65
2024/01/26 06:29:03;;;;;;;56.10;50.03;;;;;;;;;;4149286;28;20401;-65
2024/01/26 06:31:05;;;;;;;56.50;49.53;;;;;;;;;;4148689;28;20293;-65
2024/01/26 06:33:07;;;;;;;102.35;60.50;;;;;;;;;;4148991;28;20038;-65
2024/01/26 06:35:09;;;;;;;104.30;73.90;;;;;;;;;;4131267;28;20126;-65
2024/01/26 06:37:11;;;;;;;65.85;58.70;;;;;;;;;;4148661;28;20042;-64
2024/01/26 06:39:13;;;;;;;57.40;50.20;;;;;;;;;;4149262;28;20077;-64
2024/01/26 06:41:14;;;;;;;68.23;51.33;;;;;;;;;;4149244;28;20482;-64
2024/01/26 06:43:16;;;;;;;106.68;64.45;;;;;;;;;;4149070;28;20291;-64
2024/01/26 06:45:18;;;;;;;226.55;64.38;;;;;;;;;;4149122;28;20044;-64
2024/01/26 06:47:20;;;;;;;145.15;59.72;;;;;;;;;;4149093;28;20049;-64
2024/01/26 06:49:21;;;;;;;113.05;55.78;;;;;;;;;;4148880;28;20038;-64
2024/01/26 06:51:23;;;;;;;150.95;48.70;;;;;;;;;;4140821;28;20062;-63
2024/01/26 06:53:25;;;;;;;101.67;54.60;;;;;;;;;;4149124;28;20497;-63
2024/01/26 06:55:26;;;;;;;55.78;51.13;;;;;;;;;;4131640;28;20042;-63
2024/01/26 06:57:28;;;;;;;74.37;46.30;;;;;;;;;;4149017;28;20042;-63
2024/01/26 06:59:30;;;;;;;213.38;47.75;;;;;;;;;;4147763;28;20046;-63
2024/01/26 07:01:31;;;;;;;46.50;42.30;;;;;;;;;;4148579;28;20041;-63
2024/01/26 07:03:33;;;;;;;126.18;43.83;;;;;;;;;;4148838;28;20046;-63
2024/01/26 07:05:35;;;;;;;52.17;44.55;;;;;;;;;;4148861;28;20041;-63
2024/01/26 07:07:36;;;;;;;80.80;45.73;;;;;;;;;;4148760;28;20037;-63
2024/01/26 07:09:38;;;;;;;46.87;42.70;;;;;;;;;;4148816;28;20776;-63
2024/01/26 07:11:40;;;;;;;62.55;46.25;;;;;;;;;;4148922;28;20042;-64
2024/01/26 07:13:42;;;;;;;89.28;46.28;;;;;;;;;;4148506;28;20068;-64
2024/01/26 07:15:43;;;;;;;57.80;44.92;;;;;;;;;;4148587;28;20069;-64
2024/01/26 07:17:45;;;;;;;110.95;47.70;;;;;;;;;;4145829;28;20034;-64
2024/01/26 07:19:47;;;;;;;42.53;39.25;;;;;;;;;;4148374;28;20104;-64
2024/01/26 07:21:48;;;;;;;43.25;40.33;;;;;;;;;;4148311;28;20509;-64
2024/01/26 07:23:50;;;;;;;42.97;39.92;;;;;;;;;;4148554;28;20053;-64
2024/01/26 07:25:52;;;;;;;41.83;39.20;;;;;;;;;;4130717;28;20054;-64
2024/01/26 07:27:53;;;;;;;45.90;42.87;;;;;;;;;;4148426;28;20078;-64
2024/01/26 07:29:55;;;;;;;86.20;46.53;;;;;;;;;;4148542;28;20056;-64
2024/01/26 07:31:57;;;;;;;40.30;37.67;;;;;;;;;;4148382;28;20124;-64
2024/01/26 07:33:58;;;;;;;41.08;38.58;;;;;;;;;;4130663;28;20042;-64
2024/01/26 07:36:00;;;;;;;41.75;39.17;;;;;;;;;;4148627;28;20038;-64
2024/01/26 07:38:03;;;;;;;42.50;39.60;;;;;;;;;;4148556;28;20040;-64
2024/01/26 07:40:05;;;;;;;42.42;39.35;;;;;;;;;;4148374;28;20314;-64
2024/01/26 07:42:06;;;;;;;44.80;41.90;;;;;;;;;;4148285;28;20038;-64
2024/01/26 07:44:08;;;;;;;42.35;38.45;;;;;;;;;;4148158;28;20050;-64
2024/01/26 07:46:10;;;;;;;42.15;38.50;;;;;;;;;;4148162;28;20637;-64
2024/01/26 07:48:12;;;;;;;42.70;39.58;;;;;;;;;;4148133;28;20411;-65
2024/01/26 07:50:14;;;;;;;51.88;43.85;;;;;;;;;;4148147;28;20498;-64
2024/01/26 07:52:16;;;;;;;69.85;41.85;;;;;;;;;;4147839;28;20046;-64
2024/01/26 07:54:18;;;;;;;55.47;40.00;;;;;;;;;;4148144;28;20532;-64
2024/01/26 07:56:19;;;;;;;51.67;39.80;;;;;;;;;;4148377;28;20073;-64
2024/01/26 07:58:21;;;;;;;98.25;39.20;;;;;;;;;;4148323;28;20039;-64
2024/01/26 08:00:23;;;;;;;69.70;41.83;;;;;;;;;;4148056;28;20042;-64
2024/01/26 08:02:26;;;;;;;56.33;43.72;;;;;;;;;;4148031;28;20324;-63
2024/01/26 08:04:27;;;;;;;117.80;39.70;;;;;;;;;;4148130;28;20041;-63
2024/01/26 08:06:29;;;;;;;43.85;40.05;;;;;;;;;;4147946;28;20042;-64
2024/01/26 08:08:31;;;;;;;45.58;42.10;;;;;;;;;;4130682;28;20069;-63
2024/01/26 08:10:33;;;;;;;43.67;40.85;;;;;;;;;;4147897;28;20046;-63
2024/01/26 08:12:35;;;;;;;41.77;39.13;;;;;;;;;;4147240;28;20565;-63
2024/01/26 08:14:46;;;;;;;42.10;39.28;;;;;;;;;;4148165;28;20038;-63
2024/01/26 08:16:47;;;;;;;51.17;41.78;;;;;;;;;;4148020;28;20042;-63
2024/01/26 08:18:49;;;;;;;48.63;44.38;;;;;;;;;;4147710;28;20528;-63
2024/01/26 08:20:52;;;;;;;62.00;51.95;;;;;;;;;;4148057;28;20050;-63
2024/01/26 08:22:54;;;;;;;62.35;49.42;;;;;;;;;;4147795;28;20536;-63
2024/01/26 08:24:58;;;;;;;98.15;53.75;;;;;;;;;;4147578;28;20048;-63
2024/01/26 08:27:00;;;;;;;129.93;61.17;;;;;;;;;;4147660;28;20046;-63
2024/01/26 08:29:02;;;;;;;223.05;52.53;;;;;;;;;;4147671;28;20513;-63
2024/01/26 08:31:05;;;;;;;70.83;51.67;;;;;;;;;;4147898;28;20042;-63
2024/01/26 08:33:07;;;;;;;121.28;49.20;;;;;;;;;;4147608;28;20745;-63
2024/01/26 08:35:09;;;;;;;106.00;48.17;;;;;;;;;;4147700;28;20453;-63
2024/01/26 08:37:12;;;;;;;66.97;45.28;;;;;;;;;;4147576;28;20284;-64
2024/01/26 08:39:14;;;;;;;47.95;43.78;;;;;;;;;;4147905;28;20057;-63
2024/01/26 08:41:17;;;;;;;79.95;58.67;;;;;;;;;;4147515;28;20040;-63
2024/01/26 08:43:18;;;;;;;165.75;62.10;;;;;;;;;;4147586;28;20038;-63
2024/01/26 08:45:20;;;;;;;62.30;50.67;;;;;;;;;;4147521;28;20038;-64
2024/01/26 08:47:21;;;;;;;57.25;51.33;;;;;;;;;;4147667;28;20066;-64
2024/01/26 08:49:23;;;;;;;53.58;49.42;;;;;;;;;;4147657;28;20038;-63
2024/01/26 08:51:25;;;;;;;59.28;44.55;;;;;;;;;;4147457;28;20464;-63
2024/01/26 08:53:26;;;;;;;46.63;41.45;;;;;;;;;;4147599;28;20121;-63
2024/01/26 08:55:28;;;;;;;44.90;40.95;;;;;;;;;;4147487;28;20464;-63
2024/01/26 08:57:30;;;;;;;71.30;44.60;;;;;;;;;;4147476;28;20110;-63
2024/01/26 08:59:32;;;;;;;65.93;43.90;;;;;;;;;;4147532;28;20574;-63
2024/01/26 09:01:38;;;;;;;92.55;49.70;;;;;;;;;;4147451;28;20342;-63
2024/01/26 09:03:39;;;;;;;49.88;45.55;;;;;;;;;;4147416;28;20557;-64
2024/01/26 09:05:41;;;;;;;47.85;43.92;;;;;;;;;;4147665;28;20046;-63
2024/01/26 09:07:43;;;;;;;57.25;46.95;;;;;;;;;;4147298;28;20045;-63
2024/01/26 09:09:44;;;;;;;51.80;46.72;;;;;;;;;;4147403;28;20053;-63
2024/01/26 09:11:46;;;;;;;57.43;52.30;;;;;;;;;;4147762;28;20041;-64
2024/01/26 09:13:48;;;;;;;52.55;48.45;;;;;;;;;;4147147;28;20510;-64
2024/01/26 09:15:50;;;;;;;48.85;44.17;;;;;;;;;;4147498;28;20038;-64
2024/01/26 09:17:51;;;;;;;48.55;43.95;;;;;;;;;;4147321;28;20407;-64
2024/01/26 09:19:53;;;;;;;48.63;44.70;;;;;;;;;;4147620;28;20038;-64
2024/01/26 09:21:55;;;;;;;49.00;44.38;;;;;;;;;;4146914;28;20034;-64
2024/01/26 09:23:57;;;;;;;47.60;43.27;;;;;;;;;;4147891;28;20534;-64
2024/01/26 09:25:58;;;;;;;51.07;46.67;;;;;;;;;;4150245;28;20137;-64
2024/01/26 09:28:00;;;;;;;49.47;44.75;;;;;;;;;;4150312;28;20054;-64
2024/01/26 09:30:03;;;;;;;49.63;45.35;;;;;;;;;;4150258;28;20060;-64
2024/01/26 09:32:05;;;;;;;53.45;48.80;;;;;;;;;;4150605;28;20069;-63
2024/01/26 09:34:07;;;;;;;48.40;44.58;;;;;;;;;;4150288;28;20046;-63
2024/01/26 09:36:10;;;;;;;48.53;44.70;;;;;;;;;;4150256;28;20048;-63
2024/01/26 09:38:11;;;;;;;48.60;44.88;;;;;;;;;;4150104;28;20456;-63
2024/01/26 09:40:13;;;;;;;43.60;40.07;;;;;;;;;;4150116;28;20052;-63
2024/01/26 09:42:15;;;;;;;48.95;44.92;;;;;;;;;;4149990;28;20498;-63
2024/01/26 09:44:17;;;;;;;43.88;40.42;;;;;;;;;;4150226;28;20052;-63
2024/01/26 09:46:19;;;;;;;48.75;45.30;;;;;;;;;;4148737;28;20078;-63
2024/01/26 09:48:21;;;;;;;49.85;45.92;;;;;;;;;;4149979;28;20085;-63
2024/01/26 09:50:22;;;;;;;50.80;46.65;;;;;;;;;;4149987;28;20144;-63
2024/01/26 09:52:24;;;;;;;49.93;46.27;;;;;;;;;;4150160;28;20095;-63
2024/01/26 09:54:28;;;;;;;50.50;46.55;;;;;;;;;;4149985;28;20134;-63
2024/01/26 09:56:31;;;;;;;48.60;45.17;;;;;;;;;;4149999;28;20080;-63
2024/01/26 09:58:37;;;;;;;48.28;44.55;;;;;;;;;;4149935;28;20404;-63
2024/01/26 10:00:39;;;;;;;47.57;44.37;;;;;;;;;;4149908;28;20100;-63
2024/01/26 10:02:41;;;;;;;50.22;46.47;;;;;;;;;;4149881;28;20288;-63
2024/01/26 10:04:43;;;;;;;;;;;;;;;;;;4150264;28;20137;-63
2024/01/26 10:06:45;;;;;;;50.17;46.38;;;;;;;;;;4149715;28;20293;-63
2024/01/26 10:08:47;;;;;;;48.05;44.80;;;;;;;;;;4149719;28;20414;-63
2024/01/26 10:10:49;;;;;;;45.50;42.08;;;;;;;;;;4149641;28;20421;-63
2024/01/26 10:12:51;;;;;;;45.53;42.33;;;;;;;;;;4143016;28;20054;-63
2024/01/26 10:15:02;;;;;;;44.53;41.35;;;;;;;;;;4133440;28;20523;-63
2024/01/26 10:17:05;;;;;;;42.55;39.58;;;;;;;;;;4133431;28;20070;-63
2024/01/26 10:19:17;;;;;;;43.65;40.55;;;;;;;;;;4133473;28;20549;-63
2024/01/26 10:21:20;;;;;;;50.80;46.78;;;;;;;;;;4133508;28;20038;-63
2024/01/26 10:23:23;;;;;;;47.55;43.90;;;;;;;;;;4133741;28;20109;-64
2024/01/26 10:25:25;;;;;;;45.50;42.42;;;;;;;;;;4132995;28;20549;-63
2024/01/26 10:27:26;;;;;;;48.27;44.40;;;;;;;;;;4133127;28;20051;-63
2024/01/26 10:29:28;;;;;;;48.57;45.07;;;;;;;;;;4133263;28;20414;-63
2024/01/26 10:31:30;;;;;;;49.70;46.00;;;;;;;;;;4133277;28;20133;-63
2024/01/26 10:33:32;;;;;;;51.27;46.97;;;;;;;;;;4115899;28;20290;-63
2024/01/26 10:35:34;;;;;;;49.08;44.78;;;;;;;;;;4132436;28;20294;-63
2024/01/26 10:37:35;;;;;;;49.45;45.72;;;;;;;;;;4133052;28;20038;-63
2024/01/26 10:39:37;;;;;;;51.92;47.47;;;;;;;;;;4133147;28;20046;-63
2024/01/26 10:41:41;;;;;;;51.67;47.67;;;;;;;;;;4132982;28;20412;-63
2024/01/26 10:43:43;;;;;;;51.55;47.63;;;;;;;;;;4133094;28;20093;-63
2024/01/26 10:45:46;;;;;;;51.08;47.10;;;;;;;;;;4133000;28;20042;-63
2024/01/26 10:47:48;;;;;;;43.65;40.45;;;;;;;;;;4131631;28;20038;-63
2024/01/26 10:49:53;;;;;;;42.00;39.22;;;;;;;;;;4132177;28;20035;-63
2024/01/26 10:51:55;;;;;;;45.22;42.15;;;;;;;;;;4131875;28;20084;-62
2024/01/26 10:53:58;;;;;;;46.28;43.15;;;;;;;;;;4131235;28;20483;-63
2024/01/26 10:56:01;;;;;;;44.22;41.35;;;;;;;;;;4132423;28;20072;-63
2024/01/26 10:58:03;;;;;;;47.35;44.35;;;;;;;;;;4131701;28;20592;-63
2024/01/26 11:00:05;;;;;;;49.08;45.25;;;;;;;;;;4132253;28;20066;-63
2024/01/26 11:02:10;;;;;;;49.22;45.85;;;;;;;;;;4130366;28;20044;-63
2024/01/26 11:04:11;;;;;;;45.83;42.47;;;;;;;;;;4131198;28;20043;-63
2024/01/26 11:06:13;;;;;;;45.58;42.03;;;;;;;;;;4131889;28;20117;-63
2024/01/26 11:08:21;;;;;;;47.15;43.42;;;;;;;;;;4130548;28;20043;-63
2024/01/26 11:10:25;;;;;;;46.72;43.00;;;;;;;;;;4131425;28;20462;-63
2024/01/26 11:12:27;;;;;;;46.13;43.00;;;;;;;;;;4135618;28;20038;-62
2024/01/26 11:14:31;;;;;;;45.77;42.73;;;;;;;;;;4138074;28;20039;-63
2024/01/26 11:16:34;;;;;;;48.00;45.03;;;;;;;;;;4136959;28;20049;-63
2024/01/26 11:18:36;;;;;;;46.30;43.33;;;;;;;;;;4139233;28;20069;-63
2024/01/26 11:20:38;;;;;;;40.55;38.05;;;;;;;;;;4140947;28;20121;-63
2024/01/26 11:22:39;;;;;;;45.88;42.78;;;;;;;;;;4141346;28;20406;-63
2024/01/26 11:24:42;;;;;;;46.73;43.23;;;;;;;;;;4139579;28;20037;-63
2024/01/26 11:26:56;;;;;;;46.03;43.33;;;;;;;;;;4137529;28;20046;-63
2024/01/26 11:29:09;;;;;;;45.72;41.88;;;;;;;;;;4146153;28;20045;-63
2024/01/26 11:31:11;;;;;;;46.58;43.35;;;;;;;;;;4147914;28;20088;-63
2024/01/26 11:33:16;;;;;;;46.20;43.15;;;;;;;;;;4140015;28;20046;-64
2024/01/26 11:35:21;;;;;;;45.40;42.17;;;;;;;;;;4132063;28;20043;-64
2024/01/26 11:37:25;;;;;;;48.42;45.53;;;;;;;;;;4144922;28;20030;-65
2024/01/26 11:39:28;;;;;;;44.33;41.47;;;;;;;;;;4137840;28;20117;-65
2024/01/26 11:41:30;;;;;;;45.20;42.33;;;;;;;;;;4141396;28;20034;-65
2024/01/26 11:43:32;;;;;;;45.22;42.05;;;;;;;;;;4139434;28;20112;-65
2024/01/26 11:45:40;;;;;;;43.33;40.42;;;;;;;;;;4138977;28;20405;-65
2024/01/26 11:47:42;;;;;;;47.13;43.58;;;;;;;;;;4141260;28;20065;-65
2024/01/26 11:49:44;;;;;;;49.60;46.00;;;;;;;;;;4139762;28;20042;-65